Time;durP1;ratioP1;P1;durP2;ratioP2;P2;SDS_P1;SDS_P2;PMS_P1;PMS_P2;Temp;Humidity;BMP_temperature;BMP_pressure;BME280_temperature;BME280_humidity;BME280_pressure;Samples;Min_cycle;Max_cycle;Signal;HPM_P1;HPM_P2
2021/06/09 00:00:39;;;;;;;22.50;20.10;;;12.50;99.90;;;;;;2105727;28;20191;-66
2021/06/09 00:01:40;;;;;;;27.27;22.70;;;12.50;99.90;;;;;;2105952;28;20246;-66
2021/06/09 00:02:41;;;;;;;22.63;19.30;;;12.40;99.90;;;;;;2105716;28;20572;-66
2021/06/09 00:03:42;;;;;;;22.77;20.47;;;12.40;99.90;;;;;;2105593;28;20187;-66
2021/06/09 00:04:42;;;;;;;21.17;19.07;;;12.50;99.90;;;;;;2105942;28;20167;-66
2021/06/09 00:05:45;;;;;;;22.90;20.60;;;12.50;99.90;;;;;;2105220;28;20167;-65
2021/06/09 00:06:46;;;;;;;23.58;20.85;;;12.40;99.90;;;;;;2105445;28;20182;-66
2021/06/09 00:07:46;;;;;;;23.23;20.47;;;12.50;99.90;;;;;;2105812;28;20167;-65
2021/06/09 00:08:47;;;;;;;23.57;20.73;;;12.50;99.90;;;;;;2106076;28;20167;-66
2021/06/09 00:09:48;;;;;;;23.63;21.00;;;12.50;99.90;;;;;;2105833;28;20202;-66
2021/06/09 00:10:54;;;;;;;21.73;19.53;;;12.60;99.90;;;;;;2105131;28;20171;-66
2021/06/09 00:11:55;;;;;;;24.42;20.63;;;12.60;99.90;;;;;;2105185;28;20179;-65
2021/06/09 00:12:56;;;;;;;23.20;20.63;;;12.60;99.90;;;;;;2105570;28;20875;-66
2021/06/09 00:13:56;;;;;;;24.53;21.43;;;12.60;99.90;;;;;;2105554;28;20176;-66
2021/06/09 00:14:57;;;;;;;21.23;19.07;;;12.60;99.90;;;;;;2105734;28;20262;-66
2021/06/09 00:16:04;;;;;;;20.57;18.37;;;12.50;99.90;;;;;;2105517;28;20834;-66
2021/06/09 00:17:05;;;;;;;22.08;19.17;;;12.60;99.90;;;;;;2105150;28;20175;-66
2021/06/09 00:18:05;;;;;;;23.23;19.17;;;12.60;99.90;;;;;;2096700;28;20175;-66
2021/06/09 00:19:07;;;;;;;22.37;19.93;;;12.60;99.90;;;;;;2105116;28;20175;-65
2021/06/09 00:20:15;;;;;;;22.33;19.92;;;12.60;99.90;;;;;;2105656;28;20258;-65
2021/06/09 00:21:18;;;;;;;21.88;19.50;;;12.60;99.90;;;;;;2105862;28;20193;-66
2021/06/09 00:22:18;;;;;;;20.92;18.45;;;12.70;99.90;;;;;;2105369;28;20649;-65
2021/06/09 00:23:24;;;;;;;23.60;20.30;;;12.70;99.90;;;;;;2105580;28;20197;-66
2021/06/09 00:24:25;;;;;;;25.55;19.63;;;12.70;99.90;;;;;;2105687;28;20682;-65
2021/06/09 00:25:26;;;;;;;22.43;20.03;;;12.70;99.90;;;;;;2105744;28;20182;-66
2021/06/09 00:26:27;;;;;;;21.63;19.37;;;12.70;99.90;;;;;;2105501;28;20198;-65
2021/06/09 00:27:28;;;;;;;22.15;18.27;;;12.70;99.90;;;;;;2105594;28;20182;-66
2021/06/09 00:28:30;;;;;;;21.37;19.17;;;12.80;99.90;;;;;;2104939;28;20592;-65
2021/06/09 00:29:31;;;;;;;22.52;19.42;;;12.70;99.90;;;;;;2105093;28;20178;-65
2021/06/09 00:30:34;;;;;;;21.70;19.40;;;12.70;99.90;;;;;;2105498;28;20552;-66
2021/06/09 00:31:35;;;;;;;21.75;19.40;;;12.80;99.90;;;;;;2105649;28;20250;-65
2021/06/09 00:32:36;;;;;;;20.83;18.70;;;12.80;99.90;;;;;;2105360;28;20660;-66
2021/06/09 00:33:37;;;;;;;19.90;17.57;;;12.80;99.90;;;;;;2106408;28;20201;-66
2021/06/09 00:34:37;;;;;;;18.70;16.67;;;12.70;99.90;;;;;;2106590;28;20206;-65
2021/06/09 00:35:38;;;;;;;19.07;17.07;;;12.70;99.90;;;;;;2106769;28;20741;-66
2021/06/09 00:36:39;;;;;;;20.13;17.57;;;12.80;99.90;;;;;;2107244;28;20178;-66
2021/06/09 00:37:40;;;;;;;18.23;16.43;;;12.70;99.90;;;;;;2107277;28;20167;-66
2021/06/09 00:38:40;;;;;;;17.73;15.93;;;12.70;99.90;;;;;;2107202;28;20653;-66
2021/06/09 00:39:43;;;;;;;17.57;15.77;;;12.70;99.90;;;;;;2106737;28;20591;-66
2021/06/09 00:40:43;;;;;;;15.90;14.30;;;12.70;99.90;;;;;;2106674;28;20534;-66
2021/06/09 00:41:44;;;;;;;17.20;15.60;;;12.70;99.90;;;;;;2107439;28;20212;-66
2021/06/09 00:43:34;;;;;;;18.37;16.37;;;12.60;99.90;;;;;;2106853;28;20194;-65
2021/06/09 00:44:35;;;;;;;16.23;14.60;;;12.50;99.90;;;;;;2104362;28;20214;-66
2021/06/09 00:45:39;;;;;;;18.23;16.33;;;12.40;99.90;;;;;;2098879;28;20183;-66
2021/06/09 00:46:43;;;;;;;20.23;18.13;;;12.40;99.90;;;;;;2098748;28;20172;-66
2021/06/09 00:47:44;;;;;;;17.15;15.45;;;12.40;99.90;;;;;;2106861;28;20159;-66
2021/06/09 00:48:45;;;;;;;17.23;15.50;;;12.40;99.90;;;;;;2107072;28;20197;-66
2021/06/09 00:49:46;;;;;;;18.80;16.90;;;12.40;99.90;;;;;;2107338;28;20159;-66
2021/06/09 00:50:46;;;;;;;17.27;15.47;;;12.40;99.90;;;;;;2107051;28;20193;-66
2021/06/09 00:51:47;;;;;;;16.60;14.90;;;12.40;99.90;;;;;;2107196;28;20580;-65
2021/06/09 00:52:48;;;;;;;17.97;16.07;;;12.40;99.90;;;;;;2106882;28;20269;-66
2021/06/09 00:53:50;;;;;;;17.60;15.80;;;12.50;99.90;;;;;;2107071;28;20171;-66
2021/06/09 00:54:52;;;;;;;18.80;16.80;;;12.50;99.90;;;;;;2107267;28;20201;-66
2021/06/09 00:55:53;;;;;;;20.05;17.83;;;12.50;99.90;;;;;;2107131;28;20224;-66
2021/06/09 00:56:54;;;;;;;19.60;17.27;;;12.50;99.90;;;;;;2106634;28;20260;-65
2021/06/09 00:57:55;;;;;;;20.05;17.90;;;12.40;99.90;;;;;;2098034;28;20192;-66
2021/06/09 00:58:56;;;;;;;20.23;18.15;;;12.40;99.90;;;;;;2098535;28;20182;-66
2021/06/09 00:59:57;;;;;;;18.20;16.37;;;12.40;99.90;;;;;;2107510;28;20226;-66
2021/06/09 01:00:58;;;;;;;19.67;17.67;;;12.40;99.90;;;;;;2107082;28;20760;-66
2021/06/09 01:01:59;;;;;;;16.65;14.95;;;12.30;99.90;;;;;;2106993;28;20831;-66
2021/06/09 01:03:00;;;;;;;16.77;15.17;;;12.30;99.90;;;;;;2106129;28;20167;-66
2021/06/09 01:04:04;;;;;;;20.77;18.58;;;12.30;99.90;;;;;;2106456;28;20171;-66
2021/06/09 01:05:06;;;;;;;18.38;16.60;;;12.30;99.90;;;;;;2107064;28;20167;-65
2021/06/09 01:06:07;;;;;;;20.13;17.48;;;12.30;99.90;;;;;;2106977;28;20183;-65
2021/06/09 01:07:09;;;;;;;17.83;16.02;;;12.30;99.90;;;;;;2106613;28;20251;-65
2021/06/09 01:08:12;;;;;;;16.88;15.25;;;12.30;99.90;;;;;;2106282;28;20234;-65
2021/06/09 01:09:12;;;;;;;16.77;15.07;;;12.40;99.90;;;;;;2107024;28;20232;-66
2021/06/09 01:10:13;;;;;;;16.23;14.53;;;12.30;99.90;;;;;;2106898;28;20263;-66
2021/06/09 01:11:21;;;;;;;18.57;16.20;;;12.30;99.90;;;;;;2107092;28;20228;-66
2021/06/09 01:12:22;;;;;;;20.40;18.20;;;12.30;99.90;;;;;;2106860;28;20171;-66
2021/06/09 01:13:29;;;;;;;20.25;18.05;;;12.30;99.90;;;;;;2106334;28;20191;-66
2021/06/09 01:14:30;;;;;;;21.10;18.90;;;12.20;99.90;;;;;;2106379;28;20211;-66
2021/06/09 01:15:32;;;;;;;21.67;19.40;;;12.20;99.90;;;;;;2106971;28;20654;-66
2021/06/09 01:16:32;;;;;;;23.15;19.33;;;12.20;99.90;;;;;;2106900;28;20198;-66
2021/06/09 01:17:33;;;;;;;20.70;18.57;;;12.20;99.90;;;;;;2107031;28;20646;-66
2021/06/09 01:18:35;;;;;;;21.03;18.87;;;12.10;99.90;;;;;;2106899;28;20179;-66
2021/06/09 01:19:36;;;;;;;23.10;20.70;;;12.10;99.90;;;;;;2107089;28;20179;-66
2021/06/09 01:20:37;;;;;;;25.37;22.50;;;12.10;99.90;;;;;;2106719;28;20179;-66
2021/06/09 01:21:38;;;;;;;20.50;18.30;;;12.10;99.90;;;;;;2106578;28;20626;-66
2021/06/09 01:22:40;;;;;;;22.83;19.98;;;12.10;99.90;;;;;;2106924;28;20417;-65
2021/06/09 01:23:41;;;;;;;18.48;16.58;;;12.10;99.90;;;;;;2107081;28;20191;-65
2021/06/09 01:24:42;;;;;;;19.02;17.02;;;12.00;99.90;;;;;;2107005;28;20515;-66
2021/06/09 01:25:45;;;;;;;18.43;16.53;;;12.00;99.90;;;;;;2107054;28;20174;-66
2021/06/09 01:26:46;;;;;;;17.38;15.57;;;11.90;99.90;;;;;;2107020;28;20175;-66
2021/06/09 01:27:50;;;;;;;19.03;16.93;;;11.90;99.90;;;;;;2106572;28;20189;-65
2021/06/09 01:28:56;;;;;;;18.40;15.00;;;11.80;99.90;;;;;;2106775;28;20198;-65
2021/06/09 01:29:59;;;;;;;22.88;20.20;;;11.80;99.90;;;;;;2114152;28;20170;-65
2021/06/09 01:31:00;;;;;;;20.17;18.05;;;11.80;99.90;;;;;;2106882;28;20167;-66
2021/06/09 01:32:01;;;;;;;17.67;15.88;;;11.80;99.90;;;;;;2106993;28;20198;-66
2021/06/09 01:33:02;;;;;;;20.00;17.90;;;11.80;99.90;;;;;;2106582;28;20654;-66
2021/06/09 01:34:05;;;;;;;18.77;16.83;;;11.80;99.90;;;;;;2106410;28;20178;-65
2021/06/09 01:35:07;;;;;;;17.75;15.68;;;11.80;99.90;;;;;;2098195;28;20176;-65
2021/06/09 01:36:08;;;;;;;20.48;17.67;;;11.90;99.90;;;;;;2106335;28;20254;-65
2021/06/09 01:37:09;;;;;;;20.52;18.42;;;11.90;99.90;;;;;;2106055;28;20209;-65
2021/06/09 01:38:11;;;;;;;22.20;19.40;;;11.90;99.90;;;;;;2106291;28;20593;-65
2021/06/09 01:39:16;;;;;;;20.98;18.83;;;11.90;99.90;;;;;;2106714;28;20208;-66
2021/06/09 01:40:20;;;;;;;21.60;19.30;;;11.90;99.90;;;;;;2106985;28;20175;-65
2021/06/09 01:41:23;;;;;;;23.23;20.83;;;11.90;99.90;;;;;;2106657;28;20171;-65
2021/06/09 01:42:29;;;;;;;23.42;20.83;;;11.90;99.90;;;;;;2105999;28;20170;-66
2021/06/09 01:43:30;;;;;;;24.65;22.05;;;11.90;99.90;;;;;;2106301;28;20768;-65
2021/06/09 01:44:31;;;;;;;26.63;23.58;;;11.90;99.90;;;;;;2106326;28;20183;-65
2021/06/09 01:45:35;;;;;;;20.57;18.20;;;11.90;99.90;;;;;;2106093;28;20182;-66
2021/06/09 01:46:36;;;;;;;22.23;20.02;;;11.90;99.90;;;;;;2106778;28;20542;-66
2021/06/09 01:47:36;;;;;;;29.07;21.47;;;12.00;99.90;;;;;;2107351;28;20190;-66
2021/06/09 01:48:37;;;;;;;24.90;22.10;;;12.00;99.90;;;;;;2106976;28;20219;-66
2021/06/09 01:49:38;;;;;;;29.00;25.00;;;12.00;99.90;;;;;;2106791;28;20171;-66
2021/06/09 01:50:40;;;;;;;26.90;23.37;;;12.00;99.90;;;;;;2106765;28;20186;-66
2021/06/09 01:51:41;;;;;;;26.52;23.73;;;12.00;99.90;;;;;;2106760;28;20240;-66
2021/06/09 01:52:46;;;;;;;31.45;26.08;;;12.00;99.90;;;;;;2105869;28;20231;-66
2021/06/09 01:53:47;;;;;;;25.35;22.70;;;12.00;99.90;;;;;;2106183;28;20537;-66
2021/06/09 01:54:48;;;;;;;29.40;24.30;;;12.00;99.90;;;;;;2107095;28;20185;-65
2021/06/09 01:55:49;;;;;;;26.07;23.27;;;12.00;99.90;;;;;;2106605;28;20178;-66
2021/06/09 01:56:51;;;;;;;25.42;22.77;;;12.00;99.90;;;;;;2107006;28;20187;-66
2021/06/09 01:57:52;;;;;;;24.83;22.02;;;12.00;99.90;;;;;;2106577;28;20209;-66
2021/06/09 01:58:53;;;;;;;23.98;21.50;;;12.00;99.90;;;;;;2106906;28;20171;-65
2021/06/09 01:59:54;;;;;;;31.80;26.00;;;12.00;99.90;;;;;;2106641;28;20618;-65
2021/06/09 02:00:55;;;;;;;21.17;18.93;;;12.00;99.90;;;;;;2106705;28;20171;-66
2021/06/09 02:01:56;;;;;;;28.25;23.13;;;11.90;99.90;;;;;;2106529;28;20179;-66
2021/06/09 02:02:59;;;;;;;24.07;21.60;;;11.90;99.90;;;;;;2105588;28;20174;-66
2021/06/09 02:03:59;;;;;;;22.27;19.98;;;11.80;99.90;;;;;;2105833;28;20167;-65
2021/06/09 02:05:00;;;;;;;22.80;20.23;;;11.80;99.90;;;;;;2105919;28;20175;-66
2021/06/09 02:06:01;;;;;;;26.87;23.50;;;11.80;99.90;;;;;;2105898;28;20198;-66
2021/06/09 02:07:02;;;;;;;24.57;21.87;;;11.80;99.90;;;;;;2106618;28;20194;-65
2021/06/09 02:08:09;;;;;;;26.03;23.20;;;11.80;99.90;;;;;;2106563;28;20187;-66
2021/06/09 02:09:12;;;;;;;30.92;24.10;;;11.80;99.90;;;;;;2106597;28;20167;-65
2021/06/09 02:10:17;;;;;;;27.38;23.15;;;11.80;99.90;;;;;;2106462;28;20642;-65
2021/06/09 02:11:17;;;;;;;26.77;23.83;;;11.80;99.90;;;;;;2106632;28;20167;-65
2021/06/09 02:12:21;;;;;;;26.90;24.00;;;11.80;99.90;;;;;;2106251;28;20199;-65
2021/06/09 02:13:23;;;;;;;26.95;24.13;;;11.80;99.90;;;;;;2105854;28;20179;-65
2021/06/09 02:14:24;;;;;;;30.13;24.25;;;11.80;99.90;;;;;;2105691;28;20669;-65
2021/06/09 02:15:26;;;;;;;26.52;22.63;;;11.80;99.90;;;;;;2106641;28;20175;-66
2021/06/09 02:16:38;;;;;;;33.83;26.92;;;11.70;99.90;;;;;;2106436;28;20183;-66
2021/06/09 02:17:41;;;;;;;30.92;25.20;;;11.70;99.90;;;;;;2106738;28;20181;-66
2021/06/09 02:18:42;;;;;;;27.88;24.42;;;11.70;99.90;;;;;;2105795;28;20174;-65
2021/06/09 02:19:43;;;;;;;32.67;25.03;;;11.70;99.90;;;;;;2105732;28;20243;-65
2021/06/09 02:20:48;;;;;;;32.08;25.88;;;11.70;99.90;;;;;;2106514;28;20212;-65
2021/06/09 02:21:50;;;;;;;34.72;28.27;;;11.70;99.90;;;;;;2105905;28;20208;-66
2021/06/09 02:22:52;;;;;;;30.00;26.13;;;11.70;99.90;;;;;;2105504;28;20169;-65
2021/06/09 02:23:53;;;;;;;29.35;26.17;;;11.70;99.90;;;;;;2105938;28;20178;-66
2021/06/09 02:24:54;;;;;;;30.30;24.77;;;11.70;99.90;;;;;;2097384;28;20175;-65
2021/06/09 02:25:57;;;;;;;36.27;28.63;;;11.70;99.90;;;;;;2105858;28;20662;-66
2021/06/09 02:26:58;;;;;;;30.33;24.98;;;11.70;99.90;;;;;;2106491;28;20178;-65
2021/06/09 02:27:59;;;;;;;33.27;25.63;;;11.70;99.90;;;;;;2106523;28;20194;-65
2021/06/09 02:29:01;;;;;;;25.60;22.80;;;11.70;99.90;;;;;;2106254;28;20496;-65
2021/06/09 02:30:05;;;;;;;27.77;22.63;;;11.70;99.90;;;;;;2106416;28;20167;-66
2021/06/09 02:31:06;;;;;;;20.48;18.35;;;11.70;99.90;;;;;;2105722;28;20273;-65
2021/06/09 02:32:07;;;;;;;28.10;23.13;;;11.70;99.90;;;;;;2105923;28;20176;-65
2021/06/09 02:33:10;;;;;;;27.13;22.20;;;11.70;99.90;;;;;;2105446;28;20686;-65
2021/06/09 02:34:22;;;;;;;26.27;22.77;;;11.60;99.90;;;;;;2097572;28;20674;-66
2021/06/09 02:35:23;;;;;;;25.70;22.92;;;11.50;99.90;;;;;;2105765;28;20225;-65
2021/06/09 02:36:25;;;;;;;25.63;22.93;;;11.50;99.90;;;;;;2106260;28;20191;-65
2021/06/09 02:37:26;;;;;;;35.67;29.30;;;11.50;99.90;;;;;;2106224;28;20171;-65
2021/06/09 02:38:27;;;;;;;31.90;27.23;;;11.60;99.90;;;;;;2106317;28;20172;-66
2021/06/09 02:39:28;;;;;;;41.53;31.23;;;11.60;99.90;;;;;;2106194;28;20194;-66
2021/06/09 02:40:29;;;;;;;35.47;29.53;;;11.70;99.90;;;;;;2106289;28;20224;-65
2021/06/09 02:41:29;;;;;;;32.80;27.87;;;11.70;99.90;;;;;;2106270;28;20190;-66
2021/06/09 02:42:30;;;;;;;34.47;28.83;;;11.70;99.90;;;;;;2102589;28;20718;-65
2021/06/09 02:43:32;;;;;;;37.00;31.47;;;11.70;99.90;;;;;;2100889;28;20290;-65
2021/06/09 02:44:33;;;;;;;36.33;28.65;;;11.70;99.90;;;;;;2103141;28;20175;-66
2021/06/09 02:45:34;;;;;;;40.10;32.20;;;11.70;99.90;;;;;;2103331;28;20193;-65
2021/06/09 02:46:44;;;;;;;45.97;34.05;;;11.70;99.90;;;;;;2106018;28;20656;-65
2021/06/09 02:47:50;;;;;;;34.72;28.00;;;11.70;99.90;;;;;;2105808;28;20265;-66
2021/06/09 02:48:58;;;;;;;42.85;32.22;;;11.70;99.90;;;;;;2105620;28;20570;-65
2021/06/09 02:49:59;;;;;;;35.17;28.52;;;11.70;99.90;;;;;;2106212;28;20224;-66
2021/06/09 02:51:02;;;;;;;30.45;27.10;;;11.70;99.90;;;;;;2105997;28;20680;-66
2021/06/09 02:52:11;;;;;;;37.58;28.70;;;11.70;99.90;;;;;;2108124;28;20660;-66
2021/06/09 02:53:27;;;;;;;36.05;28.67;;;11.70;99.90;;;;;;2098144;28;20199;-66
2021/06/09 02:54:39;;;;;;;49.22;34.30;;;11.70;99.90;;;;;;2099333;28;20210;-65
2021/06/09 02:56:23;;;;;;;38.28;29.73;;;11.70;99.90;;;;;;2098614;28;20658;-65
2021/06/09 02:57:56;;;;;;;40.08;30.15;;;11.70;99.90;;;;;;2103014;28;20181;-65
2021/06/09 02:59:30;;;;;;;42.47;30.25;;;11.70;99.90;;;;;;2101800;28;20174;-65
2021/06/09 03:01:00;;;;;;;41.35;30.30;;;11.70;99.90;;;;;;2101753;28;20183;-66
2021/06/09 03:02:35;;;;;;;33.42;26.85;;;11.60;99.90;;;;;;2101220;28;20717;-66
2021/06/09 03:04:04;;;;;;;32.10;25.40;;;11.60;99.90;;;;;;2098045;28;20695;-66
2021/06/09 03:05:28;;;;;;;29.60;24.13;;;11.60;99.90;;;;;;2105974;28;20175;-66
2021/06/09 03:06:58;;;;;;;30.60;23.42;;;11.60;99.90;;;;;;2097102;28;20179;-65
2021/06/09 03:08:33;;;;;;;34.38;25.60;;;11.60;99.90;;;;;;2095963;28;20193;-66
2021/06/09 03:10:07;;;;;;;38.05;28.55;;;11.50;99.90;;;;;;2105328;28;20766;-66
2021/06/09 03:11:17;;;;;;;35.22;25.95;;;11.40;99.90;;;;;;2105874;28;20164;-65
2021/06/09 03:12:32;;;;;;;32.30;26.58;;;11.40;99.90;;;;;;2105248;28;20179;-66
2021/06/09 03:15:19;;;;;;;32.33;26.15;;;11.40;99.90;;;;;;2081832;28;20193;-65
2021/06/09 03:16:31;;;;;;;42.63;31.80;;;11.50;99.90;;;;;;2106005;28;20203;-66
2021/06/09 03:17:36;;;;;;;41.78;31.45;;;11.50;99.90;;;;;;2105360;28;20171;-66
2021/06/09 03:18:44;;;;;;;40.22;29.80;;;11.60;99.90;;;;;;2096858;28;20175;-65
2021/06/09 03:20:04;;;;;;;39.40;31.00;;;11.70;99.90;;;;;;2090925;28;20221;-66
2021/06/09 03:21:14;;;;;;;41.35;29.92;;;11.70;99.90;;;;;;2105677;28;20182;-66
2021/06/09 03:22:28;;;;;;;35.30;28.08;;;11.80;99.90;;;;;;2105414;28;20171;-65
2021/06/09 03:24:12;;;;;;;35.03;27.23;;;11.90;99.90;;;;;;2105466;28;20604;-65
2021/06/09 03:25:22;;;;;;;27.85;23.35;;;11.90;99.90;;;;;;2105318;28;20171;-66
2021/06/09 03:26:39;;;;;;;26.33;23.33;;;12.00;99.90;;;;;;2098140;28;20258;-66
2021/06/09 03:27:51;;;;;;;25.83;21.85;;;12.10;99.90;;;;;;2099394;28;20585;-66
2021/06/09 03:29:24;;;;;;;30.88;24.42;;;12.10;99.90;;;;;;2089992;28;20184;-66
2021/06/09 03:30:29;;;;;;;27.52;22.00;;;12.10;99.90;;;;;;2101785;28;20167;-65
2021/06/09 03:31:44;;;;;;;25.15;22.45;;;12.20;99.90;;;;;;2105426;28;20266;-66
2021/06/09 03:33:06;;;;;;;23.05;20.58;;;12.20;99.90;;;;;;2098434;28;20185;-66
2021/06/09 03:34:17;;;;;;;22.02;19.63;;;12.20;99.90;;;;;;2100018;28;20186;-65
2021/06/09 03:35:27;;;;;;;20.80;17.70;;;12.20;99.90;;;;;;2098457;28;20176;-66
2021/06/09 03:36:33;;;;;;;24.58;20.25;;;12.20;99.90;;;;;;2098341;28;20179;-66
2021/06/09 03:37:40;;;;;;;22.17;19.85;;;12.10;99.90;;;;;;2098045;28;20286;-65
2021/06/09 03:39:10;;;;;;;25.80;21.40;;;12.10;99.90;;;;;;2097767;28;20666;-66
2021/06/09 03:40:18;;;;;;;29.13;24.45;;;12.10;99.90;;;;;;2103401;28;20183;-66
2021/06/09 03:41:21;;;;;;;36.13;28.05;;;12.10;99.90;;;;;;2105422;28;20179;-65
2021/06/09 03:42:22;;;;;;;34.95;27.60;;;12.10;99.90;;;;;;2105973;28;20178;-66
2021/06/09 03:43:24;;;;;;;34.78;29.10;;;12.00;99.90;;;;;;2105828;28;20191;-65
2021/06/09 03:44:33;;;;;;;36.78;28.15;;;12.10;99.90;;;;;;2105293;28;20175;-65
2021/06/09 03:45:49;;;;;;;35.97;27.92;;;12.10;99.90;;;;;;2097877;28;20180;-66
2021/06/09 03:46:50;;;;;;;36.95;28.88;;;12.10;99.90;;;;;;2099045;28;20214;-65
2021/06/09 03:47:52;;;;;;;27.55;24.60;;;12.00;99.90;;;;;;2096931;28;20183;-65
2021/06/09 03:48:54;;;;;;;32.25;26.80;;;12.10;99.90;;;;;;2096969;28;20175;-65
2021/06/09 03:49:56;;;;;;;34.35;28.27;;;12.20;99.90;;;;;;2096990;28;20184;-66
2021/06/09 03:51:00;;;;;;;35.45;29.33;;;12.20;99.90;;;;;;2096822;28;20194;-65
2021/06/09 03:52:01;;;;;;;32.70;27.90;;;12.20;99.90;;;;;;2097056;28;20256;-65
2021/06/09 03:53:03;;;;;;;36.97;30.27;;;12.30;99.90;;;;;;2104869;28;20649;-66
2021/06/09 03:54:04;;;;;;;37.65;30.58;;;12.30;99.90;;;;;;2105386;28;20179;-65
2021/06/09 03:55:08;;;;;;;46.58;34.85;;;12.40;99.90;;;;;;2105013;28;20190;-65
2021/06/09 03:56:11;;;;;;;37.03;31.27;;;12.40;99.90;;;;;;2096899;28;20168;-65
2021/06/09 03:57:14;;;;;;;43.15;33.80;;;12.40;99.90;;;;;;2104995;28;20174;-65
2021/06/09 03:58:17;;;;;;;41.92;32.55;;;12.50;99.90;;;;;;2104868;28;20712;-65
2021/06/09 03:59:21;;;;;;;44.90;34.50;;;12.50;99.90;;;;;;2096892;28;20202;-66
2021/06/09 04:00:23;;;;;;;37.97;32.65;;;12.60;99.90;;;;;;2096810;28;20706;-66
2021/06/09 04:01:29;;;;;;;42.22;33.92;;;12.70;99.90;;;;;;2096754;28;20206;-65
2021/06/09 04:02:31;;;;;;;40.92;30.30;;;12.70;99.90;;;;;;2097032;28;20171;-65
2021/06/09 04:03:32;;;;;;;44.28;33.30;;;12.80;99.90;;;;;;2096680;28;20191;-66
2021/06/09 04:04:35;;;;;;;36.78;30.83;;;12.90;99.90;;;;;;2104754;28;20564;-65
2021/06/09 04:05:40;;;;;;;44.83;32.92;;;12.90;99.90;;;;;;2104936;28;20248;-66
2021/06/09 04:06:43;;;;;;;46.17;34.15;;;12.90;99.90;;;;;;2097062;28;20832;-66
2021/06/09 04:07:45;;;;;;;47.10;35.22;;;12.90;99.90;;;;;;2104464;28;20587;-66
2021/06/09 04:08:47;;;;;;;45.63;34.85;;;13.00;99.90;;;;;;2104361;28;20336;-66
2021/06/09 04:09:50;;;;;;;42.22;34.55;;;13.10;99.90;;;;;;2096732;28;20168;-66
2021/06/09 04:10:53;;;;;;;41.47;33.08;;;13.10;99.90;;;;;;2096839;28;20176;-66
2021/06/09 04:12:02;;;;;;;42.05;32.35;;;13.20;99.90;;;;;;2105012;28;20183;-66
2021/06/09 04:13:03;;;;;;;46.88;34.67;;;13.30;99.90;;;;;;2105293;28;20232;-65
2021/06/09 04:14:09;;;;;;;41.63;32.08;;;13.30;99.90;;;;;;2105508;28;20171;-66
2021/06/09 04:15:11;;;;;;;39.25;31.98;;;13.30;99.90;;;;;;2104862;28;20167;-66
2021/06/09 04:16:14;;;;;;;39.92;32.92;;;13.40;99.90;;;;;;2104811;28;20163;-66
2021/06/09 04:17:23;;;;;;;40.42;32.00;;;13.40;99.90;;;;;;2104844;28;20179;-65
2021/06/09 04:18:28;;;;;;;40.38;32.10;;;13.50;99.90;;;;;;2097770;28;20174;-65
2021/06/09 04:19:29;;;;;;;38.28;30.85;;;13.40;99.90;;;;;;2097034;28;20700;-66
2021/06/09 04:20:31;;;;;;;37.25;29.98;;;13.50;99.90;;;;;;2096522;28;20740;-65
2021/06/09 04:21:32;;;;;;;37.33;29.42;;;13.50;99.90;;;;;;2096585;28;20736;-66
2021/06/09 04:22:33;;;;;;;26.23;23.40;;;13.60;99.90;;;;;;2104377;28;20186;-66
2021/06/09 04:23:35;;;;;;;29.17;23.50;;;13.70;99.90;;;;;;2104735;28;20195;-66
2021/06/09 04:24:40;;;;;;;27.70;23.58;;;13.80;99.90;;;;;;2096363;28;20187;-65
2021/06/09 04:25:42;;;;;;;28.42;24.27;;;13.80;99.90;;;;;;2104906;28;20181;-66
2021/06/09 04:26:43;;;;;;;27.33;22.63;;;13.80;99.90;;;;;;2104662;28;20167;-66
2021/06/09 04:27:45;;;;;;;25.73;21.95;;;13.90;99.90;;;;;;2096534;28;20172;-66
2021/06/09 04:28:46;;;;;;;24.65;22.05;;;13.90;99.90;;;;;;2096447;28;20266;-66
2021/06/09 04:29:49;;;;;;;28.80;24.73;;;13.90;99.90;;;;;;2104849;28;20304;-65
2021/06/09 04:30:52;;;;;;;26.70;23.42;;;13.90;99.90;;;;;;2104766;28;20260;-66
2021/06/09 04:31:52;;;;;;;29.58;25.80;;;13.90;99.90;;;;;;2104784;28;20257;-66
2021/06/09 04:33:02;;;;;;;34.97;28.23;;;14.00;99.90;;;;;;2104455;28;20163;-66
2021/06/09 04:34:03;;;;;;;33.05;28.63;;;13.90;99.90;;;;;;2104797;28;20221;-65
2021/06/09 04:35:04;;;;;;;29.97;26.77;;;14.00;99.90;;;;;;2105356;28;20235;-66
2021/06/09 04:36:10;;;;;;;35.10;28.38;;;14.00;99.90;;;;;;2105451;28;20258;-65
2021/06/09 04:37:12;;;;;;;31.63;26.98;;;14.10;99.90;;;;;;2104722;28;20167;-66
2021/06/09 04:38:18;;;;;;;38.15;29.20;;;14.10;99.90;;;;;;2105260;28;20183;-66
2021/06/09 04:39:20;;;;;;;35.80;29.13;;;14.10;99.90;;;;;;2105905;28;20171;-66
2021/06/09 04:40:27;;;;;;;41.08;32.72;;;14.10;99.90;;;;;;2106090;28;20179;-65
2021/06/09 04:41:28;;;;;;;30.48;26.92;;;14.10;99.90;;;;;;2106036;28;20206;-66
2021/06/09 04:42:29;;;;;;;31.43;27.40;;;14.00;99.90;;;;;;2103680;28;20404;-65
2021/06/09 04:43:30;;;;;;;33.97;28.30;;;14.00;99.90;;;;;;2096585;28;20290;-66
2021/06/09 04:44:32;;;;;;;31.47;27.77;;;14.10;99.90;;;;;;2098111;28;20197;-65
2021/06/09 04:45:33;;;;;;;31.23;27.63;;;14.20;99.90;;;;;;2098220;28;20191;-65
2021/06/09 04:46:34;;;;;;;28.87;25.80;;;14.30;99.90;;;;;;2097640;28;20182;-66
2021/06/09 04:47:35;;;;;;;30.80;27.17;;;14.20;99.90;;;;;;2097070;28;20187;-66
2021/06/09 04:48:36;;;;;;;31.50;27.47;;;14.20;99.90;;;;;;2097051;28;20176;-66
2021/06/09 04:49:43;;;;;;;31.13;27.37;;;14.30;99.90;;;;;;2105353;28;20291;-65
2021/06/09 04:50:48;;;;;;;34.33;28.00;;;14.40;99.90;;;;;;2097667;28;20240;-65
2021/06/09 04:51:49;;;;;;;35.95;30.13;;;14.30;99.90;;;;;;2097724;28;20182;-65
2021/06/09 04:52:52;;;;;;;37.43;30.10;;;14.40;99.90;;;;;;2097242;28;20176;-65
2021/06/09 04:53:53;;;;;;;40.50;31.67;;;14.50;99.90;;;;;;2097406;28;20185;-65
2021/06/09 04:54:53;;;;;;;34.37;29.10;;;14.50;99.90;;;;;;2097439;28;20230;-65
2021/06/09 04:55:55;;;;;;;38.93;31.70;;;14.60;99.90;;;;;;2097540;28;20180;-67
2021/06/09 04:56:56;;;;;;;35.92;30.27;;;14.60;99.90;;;;;;2097547;28;20176;-66
2021/06/09 04:57:57;;;;;;;32.53;28.83;;;14.60;99.90;;;;;;2097586;28;20263;-65
2021/06/09 04:59:04;;;;;;;45.37;34.23;;;14.70;99.90;;;;;;2097564;28;20217;-65
2021/06/09 05:00:09;;;;;;;35.25;30.05;;;14.80;99.90;;;;;;2097356;28;20179;-65
2021/06/09 05:01:10;;;;;;;43.10;31.75;;;14.80;99.90;;;;;;2096807;28;20180;-66
2021/06/09 05:02:11;;;;;;;34.93;30.27;;;14.80;99.90;;;;;;2096779;28;20168;-65
2021/06/09 05:03:12;;;;;;;34.17;27.00;;;14.90;99.90;;;;;;2097263;28;20187;-65
2021/06/09 05:04:13;;;;;;;36.47;29.10;;;15.00;99.90;;;;;;2097309;28;20543;-66
2021/06/09 05:05:15;;;;;;;36.50;30.73;;;15.10;99.90;;;;;;2097257;28;20434;-67
2021/06/09 05:06:15;;;;;;;35.95;29.52;;;15.10;99.90;;;;;;2097318;28;20207;-65
2021/06/09 05:07:16;;;;;;;34.97;28.77;;;15.20;99.90;;;;;;2096734;28;20176;-65
2021/06/09 05:08:17;;;;;;;39.20;31.90;;;15.30;99.90;;;;;;2096868;28;20172;-65
2021/06/09 05:09:18;;;;;;;31.93;28.30;;;15.20;99.90;;;;;;2097645;28;20571;-65
2021/06/09 05:10:20;;;;;;;31.83;27.10;;;15.20;99.90;;;;;;2097431;28;20174;-66
2021/06/09 05:11:36;;;;;;;35.85;29.15;;;15.30;99.90;;;;;;2096836;28;20406;-66
2021/06/09 05:13:19;;;;;;;37.77;32.00;;;15.30;99.90;;;;;;2096716;28;20271;-66
2021/06/09 05:14:42;;;;;;;36.00;29.25;;;15.40;99.90;;;;;;2087254;28;20469;-65
2021/06/09 05:15:51;;;;;;;29.20;26.00;;;15.50;99.90;;;;;;2096872;28;20816;-65
2021/06/09 05:16:54;;;;;;;31.48;26.48;;;15.50;99.90;;;;;;2089584;28;20846;-65
2021/06/09 05:17:55;;;;;;;36.07;30.17;;;15.60;99.90;;;;;;2088666;28;20635;-67
2021/06/09 05:18:56;;;;;;;32.07;28.63;;;15.50;99.90;;;;;;2088607;28;20459;-65
2021/06/09 05:19:58;;;;;;;35.10;30.07;;;15.50;99.90;;;;;;2089951;28;20176;-65
2021/06/09 05:20:59;;;;;;;29.70;26.60;;;15.60;99.90;;;;;;2090091;28;20187;-66
2021/06/09 05:22:08;;;;;;;33.90;28.90;;;15.70;99.90;;;;;;2082056;28;20412;-66
2021/06/09 05:23:24;;;;;;;35.40;31.00;;;15.80;99.90;;;;;;2082846;28;20245;-66
2021/06/09 05:24:27;;;;;;;36.97;31.03;;;15.80;99.90;;;;;;2092809;28;20418;-65
2021/06/09 05:25:30;;;;;;;31.80;28.03;;;15.90;99.90;;;;;;2098341;28;20460;-65
2021/06/09 05:26:33;;;;;;;33.67;28.40;;;15.90;99.90;;;;;;2098797;28;20455;-65
2021/06/09 05:27:36;;;;;;;38.10;31.23;;;16.00;99.90;;;;;;2106476;28;20511;-65
2021/06/09 05:28:45;;;;;;;33.23;28.33;;;16.00;99.90;;;;;;2098921;28;20913;-66
2021/06/09 05:29:47;;;;;;;33.90;28.37;;;16.10;99.90;;;;;;2098790;28;20842;-65
2021/06/09 05:30:49;;;;;;;28.70;25.70;;;16.10;99.90;;;;;;2098382;28;20437;-64